Daiei Maru No.1 — JD3741 — position and weather

sailwx.info

Track history (hours):
 
Tides and Currents Weather Stations Pressure Air Temp Water Temp Dewpoint Dewpoint Depression Visibility Wind Speed Wind Dir Waves Ship Positions

Daiei Maru No.1

Last reported at 2018-Apr-19 23:31 UTC. Time now 2018-Apr-20 05:08 UTC.
Position N 34°02' E 131°47'.

Length 79 m; draft 4.2 m.

Type: Cargo ship. MMSI: 431005676.

Date/timePositionNaut miles runAvg speedWind from/ knotsBaromVisibWave heightAir tempDewpointWater temp
2018-Apr-19 23:31N 34°02' E 131°47'0 0.7
2018-Apr-19 23:22N 34°02' E 131°46'410.5
2018-Apr-19 23:00N 33°58' E 131°45'612.4
2018-Apr-19 22:30N 33°54' E 131°50'612.5
2018-Apr-19 21:59N 33°50' E 131°56'612.6
2018-Apr-19 21:29N 33°46' E 132°02'612.6
2018-Apr-19 21:00N 33°48' E 132°09'812.4
2018-Apr-19 20:19N 33°50' E 132°19'512.9
2018-Apr-19 19:58N 33°51' E 132°24'613.2
2018-Apr-19 19:30N 33°53' E 132°31'713.1
2018-Apr-19 19:00N 33°56' E 132°38'613.0
2018-Apr-19 18:30N 33°60' E 132°44'6811.1
2018-Apr-19 12:25N 34°25' E 133°60'613.6
2018-Apr-19 11:58N 34°26' E 134°07'613.7
2018-Apr-19 11:31N 34°24' E 134°14'612.9
2018-Apr-19 11:01N 34°22' E 134°22'612.7
2018-Apr-19 10:30N 34°19' E 134°29'612.3
2018-Apr-19 10:00N 34°16' E 134°35'712.4
2018-Apr-19 09:28N 34°12' E 134°41'612.4
2018-Apr-19 08:57N 34°07' E 134°46'612.5
2018-Apr-19 08:30N 34°03' E 134°51'612.3
2018-Apr-19 08:00N 33°58' E 134°55'612.2
2018-Apr-19 07:30N 33°53' E 135°00'82 9.7
2018-Apr-18 23:03N 34°02' E 136°38'112.9
2018-Apr-18 22:56N 34°03' E 136°40'613.1
2018-Apr-18 22:29N 34°07' E 136°45'6812.3
2018-Apr-18 16:58N 34°30' E 138°02'611.9
2018-Apr-18 16:26N 34°32' E 138°10'1612.1
2018-Apr-18 15:08N 34°34' E 138°29'411.9
2018-Apr-18 14:50N 34°34' E 138°33'412.1
2018-Apr-18 14:29N 34°34' E 138°38'1412.4
2018-Apr-18 13:23N 34°36' E 138°55'811.6
2018-Apr-18 12:43N 34°40' E 139°02'2312.3
2018-Apr-18 10:48N 34°58' E 139°21'411.3
2018-Apr-18 10:30N 34°60' E 139°25'611.6
2018-Apr-18 10:00N 35°03' E 139°30'612.5
2018-Apr-18 09:30N 35°06' E 139°37'612.9
2018-Apr-18 09:00N 35°09' E 139°44'611.4
2018-Apr-18 08:30N 35°15' E 139°46'611.3
2018-Apr-18 08:00N 35°19' E 139°43'611.3
2018-Apr-18 07:31N 35°25' E 139°44'612.2
2018-Apr-18 07:00N 35°29' E 139°50'612.0
2018-Apr-18 06:30N 35°33' E 139°54'612.1
2018-Apr-18 06:00N 35°38' E 139°59'2 0.6
2018-Apr-18 01:43N 35°41' E 139°59'0 0.0
2018-Apr-18 01:19N 35°41' E 139°59'0 0.0
2018-Apr-18 00:55N 35°41' E 139°59'0 0.0
2018-Apr-17 07:42N 35°41' E 139°59'0 2.6
2018-Apr-17 07:30N 35°40' E 139°59'510.4
2018-Apr-17 07:01N 35°36' E 140°02'3 5.7
2018-Apr-17 06:30N 35°36' E 140°06'0 0.0
2018-Apr-17 06:00N 35°36' E 140°06'0 0.0
2018-Apr-17 05:30N 35°36' E 140°06'0 0.0
2018-Apr-17 05:00N 35°36' E 140°06'0 0.0
2018-Apr-17 04:30N 35°36' E 140°06'0 0.0
2018-Apr-17 04:00N 35°36' E 140°06'0 0.0
2018-Apr-17 03:30N 35°36' E 140°06'0 0.0
2018-Apr-17 03:00N 35°36' E 140°06'2 3.7
2018-Apr-17 02:30N 35°35' E 140°03'611.6
2018-Apr-17 02:00N 35°32' E 139°57'611.2
2018-Apr-17 01:30N 35°29' E 139°52'511.0
2018-Apr-17 01:00N 35°25' E 139°47'510.4
2018-Apr-17 00:30N 35°20' E 139°44'5 9.8
2018-Apr-17 00:00N 35°16' E 139°47'510.4
2018-Apr-16 23:30N 35°10' E 139°46'510.5
2018-Apr-16 23:00N 35°06' E 139°43'510.9
2018-Apr-16 22:30N 35°02' E 139°38'611.6
2018-Apr-16 22:00N 34°59' E 139°32'611.8
2018-Apr-16 21:27N 34°55' E 139°26'611.6
2018-Apr-16 20:57N 34°52' E 139°20'511.3
2018-Apr-16 20:30N 34°48' E 139°15'510.8
2018-Apr-16 20:00N 34°45' E 139°11'5 9.8
2018-Apr-16 19:30N 34°41' E 139°06'5 9.3
2018-Apr-16 19:00N 34°39' E 139°02'5 9.2
2018-Apr-16 18:30N 34°36' E 138°57'510.0
2018-Apr-16 18:00N 34°34' E 138°51'510.9
2018-Apr-16 17:30N 34°34' E 138°45'611.4
2018-Apr-16 16:58N 34°34' E 138°37'511.5
2018-Apr-16 16:29N 34°33' E 138°30'611.0
2018-Apr-16 15:59N 34°33' E 138°24'611.3
2018-Apr-16 15:29N 34°32' E 138°17'1912.1
2018-Apr-16 13:54N 34°31' E 137°54'2312.4
2018-Apr-16 12:03N 34°30' E 137°26'112.7
2018-Apr-16 11:57N 34°30' E 137°24'612.5
2018-Apr-16 11:30N 34°29' E 137°18'3511.5
2018-Apr-16 08:29N 34°08' E 136°45'511.1
2018-Apr-16 07:59N 34°04' E 136°40'81 9.4
2018-Apr-15 23:18N 33°46' E 135°04'412.3
2018-Apr-15 23:00N 33°49' E 135°01'612.2
2018-Apr-15 22:30N 33°53' E 134°55'612.0
2018-Apr-15 22:00N 33°56' E 134°50'612.0
2018-Apr-15 21:30N 33°59' E 134°43'510.8
2018-Apr-15 21:00N 34°01' E 134°37'1 0.3
2018-Apr-15 18:59N 34°00' E 134°37'0 0.0
2018-Apr-15 02:17N 34°00' E 134°37'0 0.0
2018-Apr-15 00:53N 34°00' E 134°37'0 0.0
2018-Apr-14 19:47N 34°00' E 134°37'0 0.0
2018-Apr-14 16:05N 34°00' E 134°37'0 0.0
2018-Apr-14 15:53N 34°00' E 134°37'0 0.0
2018-Apr-14 15:29N 34°00' E 134°37'0 0.0
2018-Apr-14 14:59N 34°00' E 134°37'0 0.0
2018-Apr-14 13:29N 34°00' E 134°37'0 0.1
2018-Apr-14 12:59N 34°00' E 134°37'0 0.0
2018-Apr-14 12:11N 34°00' E 134°37'0 0.0
2018-Apr-14 11:59N 34°00' E 134°37'0 0.0
2018-Apr-14 11:23N 34°00' E 134°37'0 0.0
2018-Apr-14 10:59N 34°00' E 134°37'0 0.0
2018-Apr-14 10:29N 34°00' E 134°37'0 0.0
2018-Apr-14 09:59N 34°00' E 134°37'0 0.0
2018-Apr-14 09:29N 34°00' E 134°37'0 0.0
2018-Apr-14 08:53N 34°00' E 134°37'0 0.0
2018-Apr-14 08:29N 34°00' E 134°37'0 0.0
2018-Apr-14 07:53N 34°00' E 134°37'0 0.0
2018-Apr-14 07:29N 34°00' E 134°37'0 0.0
2018-Apr-14 06:59N 34°00' E 134°37'0 0.0
2018-Apr-14 06:29N 34°00' E 134°37'0 0.0
2018-Apr-14 05:59N 34°00' E 134°37'0 0.0
2018-Apr-14 05:29N 34°00' E 134°37'0 0.0
2018-Apr-14 04:56N 34°00' E 134°37'0 0.0
2018-Apr-14 04:29N 34°00' E 134°37'0 0.0
2018-Apr-14 03:59N 34°00' E 134°37'0 0.0
2018-Apr-14 03:29N 34°00' E 134°37'0 0.0
2018-Apr-14 02:59N 34°00' E 134°37'0 0.0
2018-Apr-14 02:23N 34°00' E 134°37'0 0.0
2018-Apr-14 01:53N 34°00' E 134°37'0 0.0
2018-Apr-14 01:29N 34°00' E 134°37'0 0.8
2018-Apr-14 00:55N 33°60' E 134°37'0 0.9
2018-Apr-14 00:31N 33°60' E 134°38'4 8.4
2018-Apr-14 00:00N 34°04' E 134°38'611.2
2018-Apr-13 23:30N 34°10' E 134°40'511.2
2018-Apr-13 23:00N 34°15' E 134°38'612.0
2018-Apr-13 22:31N 34°18' E 134°32'611.3
2018-Apr-13 22:00N 34°20' E 134°25'611.3
2018-Apr-13 21:30N 34°22' E 134°19'610.4
2018-Apr-13 20:55N 34°24' E 134°12'74 9.9
2018-Apr-13 13:26N 34°07' E 132°45'511.3
2018-Apr-13 13:00N 34°05' E 132°40'611.4
2018-Apr-13 12:30N 34°03' E 132°34'610.2
2018-Apr-13 11:56N 34°05' E 132°27'511.7
2018-Apr-13 11:29N 34°08' E 132°22'611.8
2018-Apr-13 11:00N 34°11' E 132°16'1 3.0
2018-Apr-13 10:30N 34°11' E 132°14'0 0.0
2018-Apr-13 09:58N 34°11' E 132°14'0 0.0
2018-Apr-13 09:25N 34°11' E 132°14'0 0.0
2018-Apr-13 08:58N 34°11' E 132°14'0 0.0
2018-Apr-13 08:28N 34°11' E 132°14'0 0.0
2018-Apr-13 07:58N 34°11' E 132°14'0 0.0
2018-Apr-13 07:28N 34°11' E 132°14'1 1.3
2018-Apr-13 07:00N 34°12' E 132°15'2 3.3
2018-Apr-13 06:30N 34°11' E 132°17'0 0.3
2018-Apr-13 05:55N 34°11' E 132°17'0 0.0
2018-Apr-13 05:28N 34°11' E 132°17'0 0.1
2018-Apr-13 04:58N 34°11' E 132°17'0 0.0
2018-Apr-13 04:25N 34°11' E 132°17'0 0.0
2018-Apr-13 03:58N 34°11' E 132°17'0 0.0
2018-Apr-13 03:22N 34°11' E 132°17'0 0.0
2018-Apr-13 02:58N 34°11' E 132°17'0 0.1
2018-Apr-13 02:25N 34°11' E 132°17'0 0.1
2018-Apr-13 01:19N 34°11' E 132°17'0 0.0
2018-Apr-12 23:43N 34°11' E 132°17'0 0.0
2018-Apr-12 23:25N 34°11' E 132°17'0 0.0
2018-Apr-12 22:55N 34°11' E 132°17'0 0.0
2018-Apr-12 22:28N 34°11' E 132°17'0 0.0
2018-Apr-12 21:58N 34°11' E 132°17'0 0.0
2018-Apr-12 21:28N 34°11' E 132°17'0 0.0
2018-Apr-12 20:55N 34°11' E 132°17'0 0.1
2018-Apr-12 20:28N 34°11' E 132°17'0 0.0
2018-Apr-12 19:55N 34°11' E 132°17'0 0.0
2018-Apr-12 19:28N 34°11' E 132°17'0 0.0
2018-Apr-12 18:58N 34°11' E 132°17'0 0.0
2018-Apr-12 18:25N 34°11' E 132°17'0 0.0
2018-Apr-12 17:55N 34°11' E 132°17'0 0.0
2018-Apr-12 17:25N 34°11' E 132°17'0 0.0
2018-Apr-12 16:58N 34°11' E 132°17'0 0.0
2018-Apr-12 16:28N 34°11' E 132°17'0 0.0
2018-Apr-12 15:55N 34°11' E 132°17'0 0.0
2018-Apr-12 15:13N 34°11' E 132°17'0 0.0
2018-Apr-12 14:58N 34°11' E 132°17'0 0.0
2018-Apr-12 14:25N 34°11' E 132°17'0 0.0
2018-Apr-12 13:40N 34°11' E 132°17'0 0.0
2018-Apr-12 13:28N 34°11' E 132°17'0 0.0
2018-Apr-12 12:58N 34°11' E 132°17'0 0.0
2018-Apr-12 12:28N 34°11' E 132°17'0 0.0
2018-Apr-12 11:58N 34°11' E 132°17'0 0.0
2018-Apr-12 11:28N 34°11' E 132°17'4 8.0
2018-Apr-12 11:00N 34°07' E 132°17'612.4
2018-Apr-12 10:30N 34°02' E 132°14'1011.0
2018-Apr-12 09:34N 33°52' E 132°10'411.8
2018-Apr-12 09:12N 33°48' E 132°07'212.4
2018-Apr-12 09:00N 33°47' E 132°05'610.7
2018-Apr-12 08:27N 33°49' E 131°58'712.1
2018-Apr-12 07:54N 33°53' E 131°52'512.1
2018-Apr-12 07:30N 33°56' E 131°47'6 1.0
2018-Apr-12 01:18N 34°02' E 131°47'1 0.1
2018-Apr-11 18:25N 34°02' E 131°46'3 7.8
2018-Apr-11 18:01N 33°59' E 131°45'611.7
2018-Apr-11 17:29N 33°55' E 131°49'611.8
2018-Apr-11 17:00N 33°51' E 131°55'712.3
2018-Apr-11 16:26N 33°46' E 132°01'511.3
2018-Apr-11 15:59N 33°48' E 132°07'812.0
2018-Apr-11 15:17N 33°50' E 132°17'512.2
2018-Apr-11 14:53N 33°50' E 132°23'512.4
2018-Apr-11 14:29N 33°52' E 132°28'612.5
2018-Apr-11 14:01N 33°54' E 132°35'612.8
2018-Apr-11 13:30N 33°57' E 132°42'7310.9
2018-Apr-11 06:45N 34°27' E 134°03'912.3
2018-Apr-11 06:02N 34°24' E 134°13'112.0
2018-Apr-11 05:59N 34°24' E 134°14'612.4
2018-Apr-11 05:29N 34°22' E 134°21'612.0
2018-Apr-11 05:00N 34°19' E 134°27'611.9
2018-Apr-11 04:30N 34°17' E 134°34'611.5
2018-Apr-11 04:00N 34°14' E 134°39'611.5
2018-Apr-11 03:27N 34°09' E 134°44'512.1
2018-Apr-11 03:00N 34°04' E 134°48'1011.3
2018-Apr-11 02:05N 33°56' E 134°56'111.2
2018-Apr-11 01:58N 33°55' E 134°56'511.2
2018-Apr-11 01:30N 33°51' E 135°01'14910.1
2018-Apr-10 10:43N 34°30' E 137°55'311.7
2018-Apr-10 10:26N 34°31' E 137°58'511.3
2018-Apr-10 09:59N 34°32' E 138°05'611.4
2018-Apr-10 09:27N 34°33' E 138°12'611.6
2018-Apr-10 08:58N 34°34' E 138°19'611.7
2018-Apr-10 08:26N 34°35' E 138°26'511.5
2018-Apr-10 08:00N 34°35' E 138°32'2410.6
2018-Apr-10 05:44N 34°39' E 139°01'311.8
2018-Apr-10 05:28N 34°42' E 139°03'2511.8
2018-Apr-10 03:19N 34°60' E 139°25'411.7
2018-Apr-10 02:56N 35°02' E 139°30'511.6
2018-Apr-10 02:30N 35°04' E 139°35'612.8
2018-Apr-10 02:01N 35°07' E 139°42'612.7
2018-Apr-10 01:30N 35°13' E 139°46'611.9
2018-Apr-10 01:00N 35°18' E 139°44'611.4
2018-Apr-10 00:30N 35°24' E 139°43'612.4
2018-Apr-10 00:00N 35°28' E 139°49'  
Track history (hours):
 
Tides and Currents Weather Stations Pressure Air Temp Water Temp Dewpoint Dewpoint Depression Visibility Wind Speed Wind Dir Waves Ship Positions

Daiei Maru No.1

Last reported at 2018-Apr-19 23:31 UTC. Time now 2018-Apr-20 05:08 UTC.
Position N 34°02' E 131°47'.

Length 79 m; draft 4.2 m.

Type: Cargo ship. MMSI: 431005676.

Date/timePositionNaut miles runAvg speedWind from/ knotsBaromVisibWave heightAir tempDewpointWater temp
2018-Apr-19 23:31N 34°02' E 131°47'0 0.7
2018-Apr-19 23:22N 34°02' E 131°46'410.5
2018-Apr-19 23:00N 33°58' E 131°45'612.4
2018-Apr-19 22:30N 33°54' E 131°50'612.5
2018-Apr-19 21:59N 33°50' E 131°56'612.6
2018-Apr-19 21:29N 33°46' E 132°02'612.6
2018-Apr-19 21:00N 33°48' E 132°09'812.4
2018-Apr-19 20:19N 33°50' E 132°19'512.9
2018-Apr-19 19:58N 33°51' E 132°24'613.2
2018-Apr-19 19:30N 33°53' E 132°31'713.1
2018-Apr-19 19:00N 33°56' E 132°38'613.0
2018-Apr-19 18:30N 33°60' E 132°44'6811.1
2018-Apr-19 12:25N 34°25' E 133°60'613.6
2018-Apr-19 11:58N 34°26' E 134°07'613.7
2018-Apr-19 11:31N 34°24' E 134°14'612.9
2018-Apr-19 11:01N 34°22' E 134°22'612.7
2018-Apr-19 10:30N 34°19' E 134°29'612.3
2018-Apr-19 10:00N 34°16' E 134°35'712.4
2018-Apr-19 09:28N 34°12' E 134°41'612.4
2018-Apr-19 08:57N 34°07' E 134°46'612.5
2018-Apr-19 08:30N 34°03' E 134°51'612.3
2018-Apr-19 08:00N 33°58' E 134°55'612.2
2018-Apr-19 07:30N 33°53' E 135°00'82 9.7
2018-Apr-18 23:03N 34°02' E 136°38'112.9
2018-Apr-18 22:56N 34°03' E 136°40'613.1
2018-Apr-18 22:29N 34°07' E 136°45'6812.3
2018-Apr-18 16:58N 34°30' E 138°02'611.9
2018-Apr-18 16:26N 34°32' E 138°10'1612.1
2018-Apr-18 15:08N 34°34' E 138°29'411.9
2018-Apr-18 14:50N 34°34' E 138°33'412.1
2018-Apr-18 14:29N 34°34' E 138°38'1412.4
2018-Apr-18 13:23N 34°36' E 138°55'811.6
2018-Apr-18 12:43N 34°40' E 139°02'2312.3
2018-Apr-18 10:48N 34°58' E 139°21'411.3
2018-Apr-18 10:30N 34°60' E 139°25'611.6
2018-Apr-18 10:00N 35°03' E 139°30'612.5
2018-Apr-18 09:30N 35°06' E 139°37'612.9
2018-Apr-18 09:00N 35°09' E 139°44'611.4
2018-Apr-18 08:30N 35°15' E 139°46'611.3
2018-Apr-18 08:00N 35°19' E 139°43'611.3
2018-Apr-18 07:31N 35°25' E 139°44'612.2
2018-Apr-18 07:00N 35°29' E 139°50'612.0
2018-Apr-18 06:30N 35°33' E 139°54'612.1
2018-Apr-18 06:00N 35°38' E 139°59'2 0.6
2018-Apr-18 01:43N 35°41' E 139°59'0 0.0
2018-Apr-18 01:19N 35°41' E 139°59'0 0.0
2018-Apr-18 00:55N 35°41' E 139°59'0 0.0
2018-Apr-17 07:42N 35°41' E 139°59'0 2.6
2018-Apr-17 07:30N 35°40' E 139°59'510.4
2018-Apr-17 07:01N 35°36' E 140°02'3 5.7
2018-Apr-17 06:30N 35°36' E 140°06'0 0.0
2018-Apr-17 06:00N 35°36' E 140°06'0 0.0
2018-Apr-17 05:30N 35°36' E 140°06'0 0.0
2018-Apr-17 05:00N 35°36' E 140°06'0 0.0
2018-Apr-17 04:30N 35°36' E 140°06'0 0.0
2018-Apr-17 04:00N 35°36' E 140°06'0 0.0
2018-Apr-17 03:30N 35°36' E 140°06'0 0.0
2018-Apr-17 03:00N 35°36' E 140°06'2 3.7
2018-Apr-17 02:30N 35°35' E 140°03'611.6
2018-Apr-17 02:00N 35°32' E 139°57'611.2
2018-Apr-17 01:30N 35°29' E 139°52'511.0
2018-Apr-17 01:00N 35°25' E 139°47'510.4
2018-Apr-17 00:30N 35°20' E 139°44'5 9.8
2018-Apr-17 00:00N 35°16' E 139°47'510.4
2018-Apr-16 23:30N 35°10' E 139°46'510.5
2018-Apr-16 23:00N 35°06' E 139°43'510.9
2018-Apr-16 22:30N 35°02' E 139°38'611.6
2018-Apr-16 22:00N 34°59' E 139°32'611.8
2018-Apr-16 21:27N 34°55' E 139°26'611.6
2018-Apr-16 20:57N 34°52' E 139°20'511.3
2018-Apr-16 20:30N 34°48' E 139°15'510.8
2018-Apr-16 20:00N 34°45' E 139°11'5 9.8
2018-Apr-16 19:30N 34°41' E 139°06'5 9.3
2018-Apr-16 19:00N 34°39' E 139°02'5 9.2
2018-Apr-16 18:30N 34°36' E 138°57'510.0
2018-Apr-16 18:00N 34°34' E 138°51'510.9
2018-Apr-16 17:30N 34°34' E 138°45'611.4
2018-Apr-16 16:58N 34°34' E 138°37'511.5
2018-Apr-16 16:29N 34°33' E 138°30'611.0
2018-Apr-16 15:59N 34°33' E 138°24'611.3
2018-Apr-16 15:29N 34°32' E 138°17'1912.1
2018-Apr-16 13:54N 34°31' E 137°54'2312.4
2018-Apr-16 12:03N 34°30' E 137°26'112.7
2018-Apr-16 11:57N 34°30' E 137°24'612.5
2018-Apr-16 11:30N 34°29' E 137°18'3511.5
2018-Apr-16 08:29N 34°08' E 136°45'511.1
2018-Apr-16 07:59N 34°04' E 136°40'81 9.4
2018-Apr-15 23:18N 33°46' E 135°04'412.3
2018-Apr-15 23:00N 33°49' E 135°01'612.2
2018-Apr-15 22:30N 33°53' E 134°55'612.0
2018-Apr-15 22:00N 33°56' E 134°50'612.0
2018-Apr-15 21:30N 33°59' E 134°43'510.8
2018-Apr-15 21:00N 34°01' E 134°37'1 0.3
2018-Apr-15 18:59N 34°00' E 134°37'0 0.0
2018-Apr-15 02:17N 34°00' E 134°37'0 0.0
2018-Apr-15 00:53N 34°00' E 134°37'0 0.0
2018-Apr-14 19:47N 34°00' E 134°37'0 0.0
2018-Apr-14 16:05N 34°00' E 134°37'0 0.0
2018-Apr-14 15:53N 34°00' E 134°37'0 0.0
2018-Apr-14 15:29N 34°00' E 134°37'0 0.0
2018-Apr-14 14:59N 34°00' E 134°37'0 0.0
2018-Apr-14 13:29N 34°00' E 134°37'0 0.1
2018-Apr-14 12:59N 34°00' E 134°37'0 0.0
2018-Apr-14 12:11N 34°00' E 134°37'0 0.0
2018-Apr-14 11:59N 34°00' E 134°37'0 0.0
2018-Apr-14 11:23N 34°00' E 134°37'0 0.0
2018-Apr-14 10:59N 34°00' E 134°37'0 0.0
2018-Apr-14 10:29N 34°00' E 134°37'0 0.0
2018-Apr-14 09:59N 34°00' E 134°37'0 0.0
2018-Apr-14 09:29N 34°00' E 134°37'0 0.0
2018-Apr-14 08:53N 34°00' E 134°37'0 0.0
2018-Apr-14 08:29N 34°00' E 134°37'0 0.0
2018-Apr-14 07:53N 34°00' E 134°37'0 0.0
2018-Apr-14 07:29N 34°00' E 134°37'0 0.0
2018-Apr-14 06:59N 34°00' E 134°37'0 0.0
2018-Apr-14 06:29N 34°00' E 134°37'0 0.0
2018-Apr-14 05:59N 34°00' E 134°37'0 0.0
2018-Apr-14 05:29N 34°00' E 134°37'0 0.0
2018-Apr-14 04:56N 34°00' E 134°37'0 0.0
2018-Apr-14 04:29N 34°00' E 134°37'0 0.0
2018-Apr-14 03:59N 34°00' E 134°37'0 0.0
2018-Apr-14 03:29N 34°00' E 134°37'0 0.0
2018-Apr-14 02:59N 34°00' E 134°37'0 0.0
2018-Apr-14 02:23N 34°00' E 134°37'0 0.0
2018-Apr-14 01:53N 34°00' E 134°37'0 0.0
2018-Apr-14 01:29N 34°00' E 134°37'0 0.8
2018-Apr-14 00:55N 33°60' E 134°37'0 0.9
2018-Apr-14 00:31N 33°60' E 134°38'4 8.4
2018-Apr-14 00:00N 34°04' E 134°38'611.2
2018-Apr-13 23:30N 34°10' E 134°40'511.2
2018-Apr-13 23:00N 34°15' E 134°38'612.0
2018-Apr-13 22:31N 34°18' E 134°32'611.3
2018-Apr-13 22:00N 34°20' E 134°25'611.3
2018-Apr-13 21:30N 34°22' E 134°19'610.4
2018-Apr-13 20:55N 34°24' E 134°12'74 9.9
2018-Apr-13 13:26N 34°07' E 132°45'511.3
2018-Apr-13 13:00N 34°05' E 132°40'611.4
2018-Apr-13 12:30N 34°03' E 132°34'610.2
2018-Apr-13 11:56N 34°05' E 132°27'511.7
2018-Apr-13 11:29N 34°08' E 132°22'611.8
2018-Apr-13 11:00N 34°11' E 132°16'1 3.0
2018-Apr-13 10:30N 34°11' E 132°14'0 0.0
2018-Apr-13 09:58N 34°11' E 132°14'0 0.0
2018-Apr-13 09:25N 34°11' E 132°14'0 0.0
2018-Apr-13 08:58N 34°11' E 132°14'0 0.0
2018-Apr-13 08:28N 34°11' E 132°14'0 0.0
2018-Apr-13 07:58N 34°11' E 132°14'0 0.0
2018-Apr-13 07:28N 34°11' E 132°14'1 1.3
2018-Apr-13 07:00N 34°12' E 132°15'2 3.3
2018-Apr-13 06:30N 34°11' E 132°17'0 0.3
2018-Apr-13 05:55N 34°11' E 132°17'0 0.0
2018-Apr-13 05:28N 34°11' E 132°17'0 0.1
2018-Apr-13 04:58N 34°11' E 132°17'0 0.0
2018-Apr-13 04:25N 34°11' E 132°17'0 0.0
2018-Apr-13 03:58N 34°11' E 132°17'0 0.0
2018-Apr-13 03:22N 34°11' E 132°17'0 0.0
2018-Apr-13 02:58N 34°11' E 132°17'0 0.1
2018-Apr-13 02:25N 34°11' E 132°17'0 0.1
2018-Apr-13 01:19N 34°11' E 132°17'0 0.0
2018-Apr-12 23:43N 34°11' E 132°17'0 0.0
2018-Apr-12 23:25N 34°11' E 132°17'0 0.0
2018-Apr-12 22:55N 34°11' E 132°17'0 0.0
2018-Apr-12 22:28N 34°11' E 132°17'0 0.0
2018-Apr-12 21:58N 34°11' E 132°17'0 0.0
2018-Apr-12 21:28N 34°11' E 132°17'0 0.0
2018-Apr-12 20:55N 34°11' E 132°17'0 0.1
2018-Apr-12 20:28N 34°11' E 132°17'0 0.0
2018-Apr-12 19:55N 34°11' E 132°17'0 0.0
2018-Apr-12 19:28N 34°11' E 132°17'0 0.0
2018-Apr-12 18:58N 34°11' E 132°17'0 0.0
2018-Apr-12 18:25N 34°11' E 132°17'0 0.0
2018-Apr-12 17:55N 34°11' E 132°17'0 0.0
2018-Apr-12 17:25N 34°11' E 132°17'0 0.0
2018-Apr-12 16:58N 34°11' E 132°17'0 0.0
2018-Apr-12 16:28N 34°11' E 132°17'0 0.0
2018-Apr-12 15:55N 34°11' E 132°17'0 0.0
2018-Apr-12 15:13N 34°11' E 132°17'0 0.0
2018-Apr-12 14:58N 34°11' E 132°17'0 0.0
2018-Apr-12 14:25N 34°11' E 132°17'0 0.0
2018-Apr-12 13:40N 34°11' E 132°17'0 0.0
2018-Apr-12 13:28N 34°11' E 132°17'0 0.0
2018-Apr-12 12:58N 34°11' E 132°17'0 0.0
2018-Apr-12 12:28N 34°11' E 132°17'0 0.0
2018-Apr-12 11:58N 34°11' E 132°17'0 0.0
2018-Apr-12 11:28N 34°11' E 132°17'4 8.0
2018-Apr-12 11:00N 34°07' E 132°17'612.4
2018-Apr-12 10:30N 34°02' E 132°14'1011.0
2018-Apr-12 09:34N 33°52' E 132°10'411.8
2018-Apr-12 09:12N 33°48' E 132°07'212.4
2018-Apr-12 09:00N 33°47' E 132°05'610.7
2018-Apr-12 08:27N 33°49' E 131°58'712.1
2018-Apr-12 07:54N 33°53' E 131°52'512.1
2018-Apr-12 07:30N 33°56' E 131°47'6 1.0
2018-Apr-12 01:18N 34°02' E 131°47'1 0.1
2018-Apr-11 18:25N 34°02' E 131°46'3 7.8
2018-Apr-11 18:01N 33°59' E 131°45'611.7
2018-Apr-11 17:29N 33°55' E 131°49'611.8
2018-Apr-11 17:00N 33°51' E 131°55'712.3
2018-Apr-11 16:26N 33°46' E 132°01'511.3
2018-Apr-11 15:59N 33°48' E 132°07'812.0
2018-Apr-11 15:17N 33°50' E 132°17'512.2
2018-Apr-11 14:53N 33°50' E 132°23'512.4
2018-Apr-11 14:29N 33°52' E 132°28'612.5
2018-Apr-11 14:01N 33°54' E 132°35'612.8
2018-Apr-11 13:30N 33°57' E 132°42'7310.9
2018-Apr-11 06:45N 34°27' E 134°03'912.3
2018-Apr-11 06:02N 34°24' E 134°13'112.0
2018-Apr-11 05:59N 34°24' E 134°14'612.4
2018-Apr-11 05:29N 34°22' E 134°21'612.0
2018-Apr-11 05:00N 34°19' E 134°27'611.9
2018-Apr-11 04:30N 34°17' E 134°34'611.5
2018-Apr-11 04:00N 34°14' E 134°39'611.5
2018-Apr-11 03:27N 34°09' E 134°44'512.1
2018-Apr-11 03:00N 34°04' E 134°48'1011.3
2018-Apr-11 02:05N 33°56' E 134°56'111.2
2018-Apr-11 01:58N 33°55' E 134°56'511.2
2018-Apr-11 01:30N 33°51' E 135°01'14910.1
2018-Apr-10 10:43N 34°30' E 137°55'311.7
2018-Apr-10 10:26N 34°31' E 137°58'511.3
2018-Apr-10 09:59N 34°32' E 138°05'611.4
2018-Apr-10 09:27N 34°33' E 138°12'611.6
2018-Apr-10 08:58N 34°34' E 138°19'611.7
2018-Apr-10 08:26N 34°35' E 138°26'511.5
2018-Apr-10 08:00N 34°35' E 138°32'2410.6
2018-Apr-10 05:44N 34°39' E 139°01'311.8
2018-Apr-10 05:28N 34°42' E 139°03'2511.8
2018-Apr-10 03:19N 34°60' E 139°25'411.7
2018-Apr-10 02:56N 35°02' E 139°30'511.6
2018-Apr-10 02:30N 35°04' E 139°35'612.8
2018-Apr-10 02:01N 35°07' E 139°42'612.7
2018-Apr-10 01:30N 35°13' E 139°46'611.9
2018-Apr-10 01:00N 35°18' E 139°44'611.4
2018-Apr-10 00:30N 35°24' E 139°43'612.4
2018-Apr-10 00:00N 35°28' E 139°49'  

Dump ship's entire track history